Brethren, Michigan
Current Conditions -  °F | °C
As of 8:35 AM on Wednesday 22 Oct 2014 (Local Time) from KMBL Reporting Station
Clear Clear  
Wind Chill: 21°   Ceiling: Unl
Heat Index: 27°   Visibility: 10mi
Dew Point: 25°   Wind: 5mph
Humidity: 93%   Direction: 120°ESE
Pressure: 30.39"   Gusts: NA
Location:  44.3°N, 86.02°W
Report Text: KMBL 221235Z AUTO 12004KT 10SM CLR M03/M04 A3039 RMK AO1
Loading
Personal Weather Stations






























Interactive Weather Map
Tropical Storm Tracking
New forecast layout! Learn more

10-Day Weather Forecast

Advertisements
Track Severe Weather on mobile